createdAt,value
2019-02-28T00:00:45.896Z,99.90
2019-02-28T00:03:14.529Z,99.90
2019-02-28T00:05:43.015Z,99.90
2019-02-28T00:08:11.471Z,99.90
2019-02-28T00:10:39.977Z,99.90
2019-02-28T00:13:08.495Z,99.90
2019-02-28T00:15:36.947Z,99.90
2019-02-28T00:18:05.417Z,99.90
2019-02-28T00:20:33.879Z,99.90
2019-02-28T00:23:02.319Z,99.90
2019-02-28T00:25:30.782Z,99.90
2019-02-28T00:27:59.536Z,99.90
2019-02-28T00:30:28.092Z,99.90
2019-02-28T00:32:59.337Z,99.90
2019-02-28T00:35:26.759Z,99.90
2019-02-28T00:37:56.623Z,99.90
2019-02-28T00:40:25.494Z,99.90
2019-02-28T00:42:53.966Z,99.90
2019-02-28T00:45:22.509Z,99.90
2019-02-28T00:47:51.092Z,99.90
2019-02-28T00:50:19.551Z,99.90
2019-02-28T00:52:48.042Z,99.90
2019-02-28T00:55:16.567Z,99.90
2019-02-28T00:57:45.033Z,99.90
2019-02-28T01:00:16.298Z,99.90
2019-02-28T01:02:44.919Z,99.90
2019-02-28T01:05:13.613Z,99.90
2019-02-28T01:07:42.143Z,99.90
2019-02-28T01:10:11.748Z,99.90
2019-02-28T01:12:40.207Z,99.90
2019-02-28T01:15:14.433Z,99.90
2019-02-28T01:17:42.993Z,99.90
2019-02-28T01:20:14.970Z,99.90
2019-02-28T01:22:42.256Z,99.90
2019-02-28T01:25:13.313Z,99.90
2019-02-28T01:27:41.769Z,99.90
2019-02-28T01:30:16.368Z,99.90
2019-02-28T01:32:49.828Z,99.90
2019-02-28T01:35:16.878Z,99.90
2019-02-28T01:37:45.423Z,99.90
2019-02-28T01:40:15.198Z,99.90
2019-02-28T01:42:43.656Z,99.90
2019-02-28T01:45:13.162Z,99.90
2019-02-28T01:47:41.681Z,99.90
2019-02-28T01:50:11.677Z,99.90
2019-02-28T01:52:44.349Z,99.90
2019-02-28T01:55:11.171Z,99.90
2019-02-28T01:57:44.130Z,99.90
2019-02-28T02:00:15.176Z,99.90
2019-02-28T02:02:43.716Z,99.90
2019-02-28T02:05:12.489Z,99.90
2019-02-28T02:07:41.023Z,99.90
2019-02-28T02:10:13.941Z,99.90
2019-02-28T02:12:42.410Z,99.90
2019-02-28T02:15:11.836Z,99.90
2019-02-28T02:17:40.287Z,99.90
2019-02-28T02:20:11.099Z,99.90
2019-02-28T02:22:40.614Z,99.90
2019-02-28T02:25:10.302Z,99.90
2019-02-28T02:27:38.775Z,99.90
2019-02-28T02:30:16.615Z,99.90
2019-02-28T02:32:45.293Z,99.90
2019-02-28T02:35:13.821Z,99.90
2019-02-28T02:37:42.368Z,99.90
2019-02-28T02:40:15.941Z,99.90
2019-02-28T02:42:48.658Z,99.90
2019-02-28T02:45:15.434Z,99.90
2019-02-28T02:47:43.924Z,99.90
2019-02-28T02:50:14.215Z,99.90
2019-02-28T02:52:43.040Z,99.90
2019-02-28T02:55:11.843Z,99.90
2019-02-28T02:57:40.362Z,99.90
2019-02-28T03:00:21.230Z,99.90
2019-02-28T03:02:49.713Z,99.90
2019-02-28T03:05:18.248Z,99.90
2019-02-28T03:07:46.784Z,99.90
2019-02-28T03:10:18.235Z,99.90
2019-02-28T03:12:46.963Z,99.90
2019-02-28T03:15:24.974Z,99.90
2019-02-28T03:17:49.309Z,99.90
2019-02-28T03:20:18.047Z,99.90
2019-02-28T03:22:46.692Z,99.90
2019-02-28T03:25:16.828Z,99.90
2019-02-28T03:27:45.519Z,99.90
2019-02-28T03:30:27.839Z,99.90
2019-02-28T03:32:49.539Z,99.90
2019-02-28T03:35:18.074Z,99.90
2019-02-28T03:37:46.622Z,99.90
2019-02-28T03:40:15.424Z,99.90
2019-02-28T03:42:43.890Z,99.90
2019-02-28T03:45:16.422Z,99.90
2019-02-28T03:47:44.885Z,99.90
2019-02-28T03:50:13.827Z,99.90
2019-02-28T03:52:44.184Z,99.90
2019-02-28T03:55:13.882Z,99.90
2019-02-28T03:57:42.488Z,99.90
2019-02-28T04:00:22.890Z,99.90
2019-02-28T04:02:56.973Z,99.90
2019-02-28T04:05:26.712Z,99.90
2019-02-28T04:07:53.560Z,99.90
2019-02-28T04:10:22.795Z,99.90
2019-02-28T04:12:51.330Z,99.90
2019-02-28T04:15:20.554Z,99.90
2019-02-28T04:17:49.169Z,99.90
2019-02-28T04:20:17.782Z,99.90
2019-02-28T04:22:46.286Z,99.90
2019-02-28T04:25:14.755Z,99.90
2019-02-28T04:27:43.218Z,99.90
2019-02-28T04:30:13.988Z,99.90
2019-02-28T04:32:42.599Z,99.90
2019-02-28T04:35:11.340Z,99.90
2019-02-28T04:37:44.604Z,99.90
2019-02-28T04:40:11.631Z,99.90
2019-02-28T04:42:40.108Z,99.90
2019-02-28T04:45:11.632Z,99.90
2019-02-28T04:47:40.465Z,99.90
2019-02-28T04:50:11.401Z,99.90
2019-02-28T04:52:39.858Z,99.90
2019-02-28T04:55:09.479Z,99.90
2019-02-28T04:57:37.949Z,99.90
2019-02-28T05:00:17.363Z,99.90
2019-02-28T05:02:45.819Z,99.90
2019-02-28T05:05:14.604Z,99.90
2019-02-28T05:07:43.148Z,99.90
2019-02-28T05:10:12.213Z,99.90
2019-02-28T05:12:41.204Z,99.90
2019-02-28T05:15:12.673Z,99.90
2019-02-28T05:17:41.133Z,99.90
2019-02-28T05:20:12.103Z,99.90
2019-02-28T05:22:40.989Z,99.90
2019-02-28T05:25:10.901Z,99.90
2019-02-28T05:27:39.467Z,99.90
2019-02-28T05:30:19.548Z,99.90
2019-02-28T05:32:46.522Z,99.90
2019-02-28T05:35:15.082Z,99.90
2019-02-28T05:37:48.079Z,99.90
2019-02-28T05:40:15.345Z,99.90
2019-02-28T05:42:43.893Z,99.90
2019-02-28T05:45:14.866Z,99.90
2019-02-28T05:47:46.987Z,99.90
2019-02-28T05:50:16.786Z,99.90
2019-02-28T05:52:43.824Z,99.90
2019-02-28T05:55:12.509Z,99.90
2019-02-28T05:57:43.398Z,99.90
2019-02-28T06:00:15.512Z,99.90
2019-02-28T06:02:44.009Z,99.90
2019-02-28T06:05:16.094Z,99.90
2019-02-28T06:07:49.151Z,99.90
2019-02-28T06:10:25.262Z,99.90
2019-02-28T06:13:01.200Z,99.90
2019-02-28T06:15:37.936Z,99.90
2019-02-28T06:18:12.804Z,99.90
2019-02-28T06:20:50.950Z,99.90
2019-02-28T06:23:26.464Z,99.90
2019-02-28T06:26:07.149Z,99.90
2019-02-28T06:28:51.998Z,99.90
2019-02-28T06:31:40.164Z,99.90
2019-02-28T06:34:17.448Z,99.90
2019-02-28T06:36:56.662Z,99.90
2019-02-28T06:39:27.675Z,99.90
2019-02-28T06:42:00.248Z,99.90
2019-02-28T06:44:32.239Z,99.90
2019-02-28T06:47:03.557Z,99.90
2019-02-28T06:49:57.164Z,99.90
2019-02-28T06:52:30.719Z,99.90
2019-02-28T06:55:12.559Z,99.90
2019-02-28T06:57:43.267Z,99.90
2019-02-28T07:00:15.515Z,99.90
2019-02-28T07:02:52.312Z,99.90
2019-02-28T07:05:26.044Z,99.90
2019-02-28T07:07:56.850Z,99.90
2019-02-28T07:10:28.706Z,99.90
2019-02-28T07:13:04.264Z,99.90
2019-02-28T07:15:36.829Z,99.90
2019-02-28T07:18:13.062Z,99.90
2019-02-28T07:20:47.231Z,99.90
2019-02-28T07:26:27.440Z,99.90
2019-02-28T07:28:52.130Z,99.90
2019-02-28T07:31:31.580Z,99.90
2019-02-28T07:34:07.829Z,99.90
2019-02-28T07:36:49.090Z,99.90
2019-02-28T07:39:29.155Z,99.90
2019-02-28T07:42:02.247Z,99.90
2019-02-28T07:44:40.802Z,99.90
2019-02-28T07:47:20.920Z,99.90
2019-02-28T07:49:53.268Z,99.90
2019-02-28T07:55:27.256Z,99.90
2019-02-28T07:57:57.308Z,99.90
2019-02-28T08:00:31.250Z,88.80
2019-02-28T08:03:02.387Z,74.20
2019-02-28T08:05:34.889Z,64.70
2019-02-28T08:08:08.609Z,57.70
2019-02-28T08:10:48.039Z,52.30
2019-02-28T08:13:22.742Z,50.10
2019-02-28T08:16:00.717Z,43.90
2019-02-28T08:18:34.332Z,40.10
2019-02-28T08:21:11.475Z,39.90
2019-02-28T08:23:45.530Z,38.80
2019-02-28T08:26:30.517Z,35.20
2019-02-28T08:29:09.120Z,36.80
2019-02-28T08:31:42.125Z,35.30
2019-02-28T08:34:34.771Z,33.90
2019-02-28T08:37:11.567Z,35.30
2019-02-28T08:40:00.255Z,36.60
2019-02-28T08:42:39.684Z,35.20
2019-02-28T08:45:13.624Z,34.70
2019-02-28T08:47:48.096Z,33.50
2019-02-28T08:50:24.041Z,33.00
2019-02-28T08:52:59.414Z,31.60
2019-02-28T08:55:33.502Z,30.20
2019-02-28T08:58:06.785Z,30.70
2019-02-28T09:00:43.362Z,32.60
2019-02-28T09:03:15.912Z,33.10
2019-02-28T09:05:51.994Z,33.20
2019-02-28T09:08:25.376Z,32.00
2019-02-28T09:10:59.192Z,30.30
2019-02-28T09:13:45.482Z,31.70
2019-02-28T09:16:16.319Z,33.20
2019-02-28T09:18:48.613Z,32.30
2019-02-28T09:21:21.383Z,30.50
2019-02-28T09:23:52.633Z,30.30
2019-02-28T09:26:28.183Z,31.20
2019-02-28T09:29:01.255Z,31.20
2019-02-28T09:31:45.303Z,32.30
2019-02-28T09:34:21.040Z,32.70
2019-02-28T09:36:55.307Z,33.00
2019-02-28T09:39:23.122Z,33.90
2019-02-28T09:41:56.304Z,34.00
2019-02-28T09:44:31.456Z,35.40
2019-02-28T09:47:00.371Z,35.90
2019-02-28T09:49:36.227Z,35.50
2019-02-28T09:52:07.277Z,34.40
2019-02-28T09:54:38.964Z,33.10
2019-02-28T09:57:15.384Z,33.40
2019-02-28T09:59:48.687Z,33.50
2019-02-28T10:02:21.952Z,32.80
2019-02-28T10:04:58.251Z,32.90
2019-02-28T10:07:32.092Z,31.70
2019-02-28T10:10:02.417Z,32.40
2019-02-28T10:12:39.379Z,33.10
2019-02-28T10:15:16.886Z,33.80
2019-02-28T10:17:53.255Z,33.30
2019-02-28T10:20:31.458Z,32.80
2019-02-28T10:23:21.451Z,32.90
2019-02-28T10:25:55.964Z,33.10
2019-02-28T10:28:25.878Z,33.10
2019-02-28T10:30:56.817Z,32.90
2019-02-28T10:33:30.974Z,33.90
2019-02-28T10:36:02.323Z,33.70
2019-02-28T10:38:38.894Z,33.40
2019-02-28T10:41:20.721Z,35.10
2019-02-28T10:43:52.250Z,34.70
2019-02-28T10:46:23.300Z,35.50
2019-02-28T10:49:01.750Z,35.10
2019-02-28T10:51:37.471Z,34.60
2019-02-28T10:54:07.927Z,34.30
2019-02-28T10:56:39.275Z,34.20
2019-02-28T10:59:11.125Z,34.60
2019-02-28T11:01:49.446Z,34.60
2019-02-28T11:04:20.275Z,35.80
2019-02-28T11:07:03.874Z,36.00
2019-02-28T11:09:40.339Z,35.70
2019-02-28T11:12:13.168Z,37.00
2019-02-28T11:14:44.414Z,37.40
2019-02-28T11:17:16.995Z,36.70
2019-02-28T11:19:52.918Z,37.20
2019-02-28T11:22:28.497Z,37.10
2019-02-28T11:25:00.860Z,37.40
2019-02-28T11:27:35.960Z,38.20
2019-02-28T11:30:18.761Z,37.80
2019-02-28T11:32:55.162Z,38.10
2019-02-28T11:35:27.095Z,38.30
2019-02-28T11:37:59.865Z,38.10
2019-02-28T11:40:31.753Z,38.90
2019-02-28T11:43:09.551Z,39.50
2019-02-28T11:45:48.340Z,40.10
2019-02-28T11:48:25.523Z,39.50
2019-02-28T11:53:50.178Z,41.10
2019-02-28T11:56:25.523Z,40.50
2019-02-28T11:58:56.187Z,40.50
2019-02-28T12:01:35.520Z,41.10
2019-02-28T12:04:13.489Z,40.70
2019-02-28T12:07:00.813Z,41.40
2019-02-28T12:09:25.869Z,41.40
2019-02-28T12:12:02.729Z,40.30
2019-02-28T12:14:40.692Z,39.10
2019-02-28T12:17:17.710Z,40.70
2019-02-28T12:19:50.760Z,38.50
2019-02-28T12:22:24.509Z,39.70
2019-02-28T12:24:56.827Z,39.10
2019-02-28T12:27:33.030Z,39.10
2019-02-28T12:30:18.679Z,39.40
2019-02-28T12:32:46.904Z,38.50
2019-02-28T12:35:15.843Z,37.90
2019-02-28T12:37:44.408Z,38.70
2019-02-28T12:40:27.969Z,38.50
2019-02-28T12:42:56.434Z,36.90
2019-02-28T12:45:30.656Z,37.30
2019-02-28T12:47:59.126Z,37.60
2019-02-28T12:50:29.414Z,38.20
2019-02-28T12:52:57.844Z,37.40
2019-02-28T12:55:27.678Z,39.40
2019-02-28T12:57:57.807Z,38.50
2019-02-28T13:00:56.386Z,38.70
2019-02-28T13:03:25.523Z,38.70
2019-02-28T13:05:54.045Z,39.00
2019-02-28T13:08:22.640Z,38.40
2019-02-28T13:10:51.106Z,36.70
2019-02-28T13:13:21.470Z,37.20
2019-02-28T13:15:49.986Z,35.70
2019-02-28T13:18:18.454Z,36.80
2019-02-28T13:20:47.061Z,36.80
2019-02-28T13:23:17.122Z,36.70
2019-02-28T13:25:46.013Z,36.10
2019-02-28T13:28:17.821Z,36.30
2019-02-28T13:30:49.013Z,37.20
2019-02-28T13:33:15.315Z,36.90
2019-02-28T13:35:47.207Z,38.30
2019-02-28T13:38:18.959Z,38.40
2019-02-28T13:40:45.938Z,38.30
2019-02-28T13:43:20.210Z,39.20
2019-02-28T13:45:44.731Z,39.40
2019-02-28T13:48:13.262Z,39.30
2019-02-28T13:50:41.771Z,39.80
2019-02-28T13:53:18.724Z,40.40
2019-02-28T13:55:41.185Z,40.60
2019-02-28T13:58:09.722Z,41.30
2019-02-28T14:00:43.717Z,41.60
2019-02-28T14:03:12.599Z,42.80
2019-02-28T14:05:41.847Z,42.20
2019-02-28T14:08:12.057Z,42.60
2019-02-28T14:10:41.060Z,42.90
2019-02-28T14:13:09.964Z,41.90
2019-02-28T14:15:48.080Z,41.10
2019-02-28T14:18:15.040Z,41.20
2019-02-28T14:20:43.580Z,41.10
2019-02-28T14:23:12.351Z,40.80
2019-02-28T14:25:41.328Z,40.30
2019-02-28T14:28:10.337Z,40.60
2019-02-28T14:30:38.959Z,40.50
2019-02-28T14:33:07.948Z,41.10
2019-02-28T14:35:38.429Z,40.00
2019-02-28T14:38:06.897Z,40.90
2019-02-28T14:40:35.443Z,41.10
2019-02-28T14:43:04.194Z,41.50
2019-02-28T14:45:42.864Z,41.90
2019-02-28T14:48:11.511Z,42.20
2019-02-28T14:50:40.055Z,42.60
2019-02-28T14:53:13.067Z,41.90
2019-02-28T14:55:38.866Z,42.10
2019-02-28T14:58:07.375Z,42.90
2019-02-28T15:00:38.904Z,43.60
2019-02-28T15:03:06.576Z,45.00
2019-02-28T15:05:40.586Z,45.20
2019-02-28T15:08:11.924Z,46.40
2019-02-28T15:10:40.205Z,47.40
2019-02-28T15:13:08.662Z,47.50
2019-02-28T15:15:37.265Z,47.70
2019-02-28T15:18:05.905Z,48.30
2019-02-28T15:20:34.371Z,48.00
2019-02-28T15:23:02.964Z,48.20
2019-02-28T15:25:31.934Z,48.10
2019-02-28T15:28:00.432Z,48.00
2019-02-28T15:30:40.221Z,48.00
2019-02-28T15:33:10.830Z,48.00
2019-02-28T15:35:39.356Z,48.60
2019-02-28T15:38:09.079Z,48.60
2019-02-28T15:40:42.812Z,49.60
2019-02-28T15:43:16.858Z,50.00
2019-02-28T15:45:41.665Z,50.40
2019-02-28T15:48:10.150Z,51.00
2019-02-28T15:50:38.689Z,51.10
2019-02-28T15:53:07.877Z,51.00
2019-02-28T15:55:37.581Z,51.70
2019-02-28T15:58:07.090Z,52.00
2019-02-28T16:00:36.864Z,52.40
2019-02-28T16:03:05.903Z,53.50
2019-02-28T16:05:39.128Z,54.20
2019-02-28T16:08:10.476Z,54.90
2019-02-28T16:10:36.192Z,56.20
2019-02-28T16:13:06.935Z,56.80
2019-02-28T16:15:35.810Z,57.00
2019-02-28T16:18:04.782Z,56.90
2019-02-28T16:20:33.249Z,57.80
2019-02-28T16:23:01.859Z,58.50
2019-02-28T16:25:32.995Z,60.40
2019-02-28T16:28:04.399Z,61.40
2019-02-28T16:30:32.842Z,62.90
2019-02-28T16:33:01.788Z,66.40
2019-02-28T16:35:30.425Z,69.60
2019-02-28T16:37:59.192Z,74.10
2019-02-28T16:40:30.145Z,78.90
2019-02-28T16:42:58.663Z,84.70
2019-02-28T16:45:48.039Z,91.90
2019-02-28T16:48:16.578Z,96.30
2019-02-28T16:50:45.351Z,99.90
2019-02-28T16:53:16.021Z,99.90
2019-02-28T16:55:44.035Z,99.90
2019-02-28T16:58:12.683Z,99.90
2019-02-28T17:00:42.454Z,99.90
2019-02-28T17:03:11.536Z,99.90
2019-02-28T17:05:40.032Z,99.90
2019-02-28T17:08:08.770Z,99.90
2019-02-28T17:10:40.078Z,99.90
2019-02-28T17:13:19.093Z,99.90
2019-02-28T17:15:55.856Z,99.90
2019-02-28T17:18:29.854Z,99.90
2019-02-28T17:20:58.316Z,99.90
2019-02-28T17:23:26.957Z,99.90
2019-02-28T17:25:56.530Z,99.90
2019-02-28T17:28:30.148Z,99.90
2019-02-28T17:31:18.578Z,99.90
2019-02-28T17:33:47.949Z,99.90
2019-02-28T17:36:16.679Z,99.90
2019-02-28T17:38:45.205Z,99.90
2019-02-28T17:41:13.672Z,99.90
2019-02-28T17:43:43.543Z,99.90
2019-02-28T17:46:14.667Z,99.90
2019-02-28T17:49:19.153Z,99.90
2019-02-28T17:51:55.439Z,99.90
2019-02-28T17:54:27.146Z,99.90
2019-02-28T17:57:10.480Z,99.90
2019-02-28T17:59:42.099Z,99.90
2019-02-28T18:02:38.205Z,99.90
2019-02-28T18:05:39.965Z,99.90
2019-02-28T18:08:17.531Z,99.90
2019-02-28T18:11:11.152Z,99.90
2019-02-28T18:13:48.590Z,99.90
2019-02-28T18:16:26.018Z,99.90
2019-02-28T18:19:09.436Z,99.90
2019-02-28T18:21:49.729Z,99.90
2019-02-28T18:24:48.825Z,99.90
2019-02-28T18:27:29.170Z,99.90
2019-02-28T18:30:10.156Z,99.90
2019-02-28T18:32:38.692Z,99.90
2019-02-28T18:35:09.027Z,99.90
2019-02-28T18:37:40.169Z,99.90
2019-02-28T18:40:09.174Z,99.90
2019-02-28T18:42:38.096Z,99.90
2019-02-28T18:45:09.064Z,99.90
2019-02-28T18:47:39.750Z,99.90
2019-02-28T18:50:08.957Z,99.90
2019-02-28T18:52:37.382Z,99.90
2019-02-28T18:55:07.557Z,99.90
2019-02-28T18:57:36.023Z,99.90
2019-02-28T19:00:08.609Z,99.90
2019-02-28T19:02:37.102Z,99.90
2019-02-28T19:05:07.141Z,99.90
2019-02-28T19:07:35.919Z,99.90
2019-02-28T19:10:07.715Z,99.90
2019-02-28T19:12:36.250Z,99.90
2019-02-28T19:15:07.659Z,99.90
2019-02-28T19:17:36.133Z,99.90
2019-02-28T19:20:07.511Z,99.90
2019-02-28T19:22:35.987Z,99.90
2019-02-28T19:25:05.493Z,99.90
2019-02-28T19:27:33.963Z,99.90
2019-02-28T19:30:02.429Z,99.90
2019-02-28T19:32:30.897Z,99.90
2019-02-28T19:34:59.355Z,99.90
2019-02-28T19:37:27.840Z,99.90
2019-02-28T19:39:56.307Z,99.90
2019-02-28T19:42:24.775Z,99.90
2019-02-28T19:44:53.237Z,99.90
2019-02-28T19:47:21.757Z,99.90
2019-02-28T19:49:50.212Z,99.90
2019-02-28T19:52:18.677Z,99.90
2019-02-28T19:54:47.227Z,99.90
2019-02-28T19:57:15.681Z,99.90
2019-02-28T19:59:44.149Z,99.90
2019-02-28T20:02:12.932Z,99.90
2019-02-28T20:04:41.399Z,99.90
2019-02-28T20:07:09.983Z,99.90
2019-02-28T20:09:38.628Z,99.90
2019-02-28T20:12:07.227Z,99.90
2019-02-28T20:14:35.684Z,99.90
2019-02-28T20:17:04.269Z,99.90
2019-02-28T20:19:32.785Z,99.90
2019-02-28T20:22:01.236Z,99.90
2019-02-28T20:24:29.777Z,99.90
2019-02-28T20:26:58.239Z,99.90
2019-02-28T20:29:26.708Z,99.90
2019-02-28T20:31:55.225Z,99.90
2019-02-28T20:34:23.920Z,99.90
2019-02-28T20:36:52.449Z,99.90
2019-02-28T20:39:20.948Z,99.90
2019-02-28T20:41:49.431Z,99.90
2019-02-28T20:44:17.897Z,99.90
2019-02-28T20:46:46.399Z,99.90
2019-02-28T20:49:14.864Z,99.90
2019-02-28T20:51:43.321Z,99.90
2019-02-28T20:54:11.787Z,99.90
2019-02-28T20:56:40.242Z,99.90
2019-02-28T20:59:08.819Z,99.90
2019-02-28T21:01:37.271Z,99.90
2019-02-28T21:04:05.734Z,99.90
2019-02-28T21:06:34.273Z,99.90
2019-02-28T21:09:04.341Z,99.90
2019-02-28T21:11:32.835Z,99.90
2019-02-28T21:14:01.624Z,99.90
2019-02-28T21:16:30.088Z,99.90
2019-02-28T21:18:58.554Z,99.90
2019-02-28T21:21:27.016Z,99.90
2019-02-28T21:23:55.473Z,99.90
2019-02-28T21:26:23.944Z,99.90
2019-02-28T21:28:52.396Z,99.90
2019-02-28T21:31:20.872Z,99.90
2019-02-28T21:33:49.324Z,99.90
2019-02-28T21:36:21.085Z,99.90
2019-02-28T21:38:49.547Z,99.90
2019-02-28T21:41:18.085Z,99.90
2019-02-28T21:43:46.553Z,99.90
2019-02-28T21:46:15.086Z,99.90
2019-02-28T21:48:43.549Z,99.90
2019-02-28T21:51:12.082Z,99.90
2019-02-28T21:53:40.533Z,99.90
2019-02-28T21:56:08.992Z,99.90
2019-02-28T21:58:37.457Z,99.90
2019-02-28T22:01:06.187Z,99.90
2019-02-28T22:03:34.718Z,99.90
2019-02-28T22:06:03.245Z,99.90
2019-02-28T22:08:31.780Z,99.90
2019-02-28T22:11:00.239Z,99.90
2019-02-28T22:13:29.028Z,99.90
2019-02-28T22:15:57.490Z,99.90
2019-02-28T22:18:25.971Z,99.90
2019-02-28T22:20:54.484Z,99.90
2019-02-28T22:23:22.946Z,99.90
2019-02-28T22:25:51.396Z,99.90
2019-02-28T22:28:19.857Z,99.90
2019-02-28T22:30:49.956Z,99.90
2019-02-28T22:33:29.132Z,99.90
2019-02-28T22:36:01.798Z,99.90
2019-02-28T22:38:30.262Z,99.90
2019-02-28T22:40:58.708Z,99.90
2019-02-28T22:43:27.497Z,99.90
2019-02-28T22:45:55.949Z,99.90
2019-02-28T22:48:24.415Z,99.90
2019-02-28T22:50:52.876Z,99.90
2019-02-28T22:53:21.401Z,99.90
2019-02-28T22:55:51.186Z,99.90
2019-02-28T22:58:19.643Z,99.90
2019-02-28T23:01:01.203Z,99.90
2019-02-28T23:03:31.584Z,99.90
2019-02-28T23:06:00.222Z,99.90
2019-02-28T23:08:28.681Z,99.90
2019-02-28T23:10:57.273Z,99.90
2019-02-28T23:13:25.796Z,99.90
2019-02-28T23:15:54.516Z,99.90
2019-02-28T23:18:23.055Z,99.90
2019-02-28T23:20:51.496Z,99.90
2019-02-28T23:23:19.951Z,99.90
2019-02-28T23:25:48.474Z,99.90
2019-02-28T23:28:25.424Z,99.90
2019-02-28T23:31:08.921Z,99.90
2019-02-28T23:33:37.478Z,99.90
2019-02-28T23:36:05.988Z,99.90
2019-02-28T23:38:34.447Z,99.90
2019-02-28T23:41:04.446Z,99.90
2019-02-28T23:43:32.903Z,99.90
2019-02-28T23:46:01.370Z,99.90
2019-02-28T23:48:29.827Z,99.90
2019-02-28T23:50:58.280Z,99.90
2019-02-28T23:53:26.765Z,99.90
2019-02-28T23:55:55.404Z,99.90
2019-02-28T23:58:23.860Z,99.90
